sensor_id;sensor_type;location;lat;lon;timestamp;temperature;humidity
43665;DHT22;29263;48.172;11.484;2022-09-29T00:00:10;7.80;99.90
43665;DHT22;29263;48.172;11.484;2022-09-29T00:02:36;7.90;99.90
43665;DHT22;29263;48.172;11.484;2022-09-29T00:05:02;8.20;99.90
43665;DHT22;29263;48.172;11.484;2022-09-29T00:07:28;7.80;99.90
43665;DHT22;29263;48.172;11.484;2022-09-29T00:09:54;8.50;99.90
43665;DHT22;29263;48.172;11.484;2022-09-29T00:12:19;7.90;99.90
43665;DHT22;29263;48.172;11.484;2022-09-29T00:14:45;8.50;99.90
43665;DHT22;29263;48.172;11.484;2022-09-29T00:17:11;8.00;99.90
43665;DHT22;29263;48.172;11.484;2022-09-29T00:19:38;7.80;99.90
43665;DHT22;29263;48.172;11.484;2022-09-29T00:22:03;7.80;99.90
43665;DHT22;29263;48.172;11.484;2022-09-29T00:24:29;7.80;99.90
43665;DHT22;29263;48.172;11.484;2022-09-29T00:26:55;7.90;99.90
43665;DHT22;29263;48.172;11.484;2022-09-29T00:29:21;7.80;99.90
43665;DHT22;29263;48.172;11.484;2022-09-29T00:31:47;7.80;99.90
43665;DHT22;29263;48.172;11.484;2022-09-29T00:34:12;8.10;99.90
43665;DHT22;29263;48.172;11.484;2022-09-29T00:36:38;7.90;99.90
43665;DHT22;29263;48.172;11.484;2022-09-29T00:39:05;7.90;99.90
43665;DHT22;29263;48.172;11.484;2022-09-29T00:41:33;8.10;99.90
43665;DHT22;29263;48.172;11.484;2022-09-29T00:49:23;8.60;99.90
43665;DHT22;29263;48.172;11.484;2022-09-29T00:51:57;7.90;99.90
43665;DHT22;29263;48.172;11.484;2022-09-29T00:54:28;7.90;99.90
43665;DHT22;29263;48.172;11.484;2022-09-29T00:56:56;7.90;99.90
43665;DHT22;29263;48.172;11.484;2022-09-29T00:59:29;7.90;99.90
43665;DHT22;29263;48.172;11.484;2022-09-29T01:01:57;7.90;99.90
43665;DHT22;29263;48.172;11.484;2022-09-29T01:04:23;7.90;99.90
43665;DHT22;29263;48.172;11.484;2022-09-29T01:06:52;7.80;99.90
43665;DHT22;29263;48.172;11.484;2022-09-29T01:09:21;7.80;99.90
43665;DHT22;29263;48.172;11.484;2022-09-29T01:11:48;7.70;99.90
43665;DHT22;29263;48.172;11.484;2022-09-29T01:14:16;7.90;99.90
43665;DHT22;29263;48.172;11.484;2022-09-29T01:16:43;7.70;99.90
43665;DHT22;29263;48.172;11.484;2022-09-29T01:19:22;8.00;99.90
43665;DHT22;29263;48.172;11.484;2022-09-29T01:27:22;7.60;99.90
43665;DHT22;29263;48.172;11.484;2022-09-29T01:30:50;7.60;99.90
43665;DHT22;29263;48.172;11.484;2022-09-29T01:33:20;7.60;99.90
43665;DHT22;29263;48.172;11.484;2022-09-29T01:36:12;7.60;99.90
43665;DHT22;29263;48.172;11.484;2022-09-29T01:46:56;7.60;99.90
43665;DHT22;29263;48.172;11.484;2022-09-29T01:49:26;7.80;99.90
43665;DHT22;29263;48.172;11.484;2022-09-29T01:52:00;7.80;99.90
43665;DHT22;29263;48.172;11.484;2022-09-29T01:57:18;7.60;99.90
43665;DHT22;29263;48.172;11.484;2022-09-29T01:59:48;7.70;99.90
43665;DHT22;29263;48.172;11.484;2022-09-29T02:02:16;7.70;99.90
43665;DHT22;29263;48.172;11.484;2022-09-29T02:04:50;8.00;99.90
43665;DHT22;29263;48.172;11.484;2022-09-29T02:07:31;7.70;99.90
43665;DHT22;29263;48.172;11.484;2022-09-29T02:10:04;7.60;99.90
43665;DHT22;29263;48.172;11.484;2022-09-29T02:12:34;7.60;99.90
43665;DHT22;29263;48.172;11.484;2022-09-29T02:15:02;7.60;99.90
43665;DHT22;29263;48.172;11.484;2022-09-29T02:17:37;7.60;99.90
43665;DHT22;29263;48.172;11.484;2022-09-29T02:20:05;7.70;99.90
43665;DHT22;29263;48.172;11.484;2022-09-29T02:22:31;7.70;99.90
43665;DHT22;29263;48.172;11.484;2022-09-29T02:24:58;7.90;99.90
43665;DHT22;29263;48.172;11.484;2022-09-29T02:27:26;7.70;99.90
43665;DHT22;29263;48.172;11.484;2022-09-29T02:29:53;7.70;99.90
43665;DHT22;29263;48.172;11.484;2022-09-29T02:32:19;7.70;99.90
43665;DHT22;29263;48.172;11.484;2022-09-29T02:34:47;7.70;99.90
43665;DHT22;29263;48.172;11.484;2022-09-29T02:51:08;7.70;99.90
43665;DHT22;29263;48.172;11.484;2022-09-29T02:53:51;7.90;99.90
43665;DHT22;29263;48.172;11.484;2022-09-29T02:59:33;7.70;99.90
43665;DHT22;29263;48.172;11.484;2022-09-29T03:01:53;7.70;99.90
43665;DHT22;29263;48.172;11.484;2022-09-29T03:04:23;7.80;99.90
43665;DHT22;29263;48.172;11.484;2022-09-29T03:06:49;7.60;99.90
43665;DHT22;29263;48.172;11.484;2022-09-29T03:09:15;7.60;99.90
43665;DHT22;29263;48.172;11.484;2022-09-29T03:11:40;7.70;99.90
43665;DHT22;29263;48.172;11.484;2022-09-29T03:14:06;7.70;99.90
43665;DHT22;29263;48.172;11.484;2022-09-29T03:16:32;7.60;99.90
43665;DHT22;29263;48.172;11.484;2022-09-29T03:18:59;7.60;99.90
43665;DHT22;29263;48.172;11.484;2022-09-29T03:21:24;7.60;99.90
43665;DHT22;29263;48.172;11.484;2022-09-29T03:23:50;7.60;99.90
43665;DHT22;29263;48.172;11.484;2022-09-29T03:26:16;7.60;99.90
43665;DHT22;29263;48.172;11.484;2022-09-29T03:28:41;8.00;99.90
43665;DHT22;29263;48.172;11.484;2022-09-29T03:31:08;7.70;99.90
43665;DHT22;29263;48.172;11.484;2022-09-29T03:33:35;7.60;99.90
43665;DHT22;29263;48.172;11.484;2022-09-29T03:36:03;7.70;99.90
43665;DHT22;29263;48.172;11.484;2022-09-29T03:38:30;7.70;99.90
43665;DHT22;29263;48.172;11.484;2022-09-29T03:40:56;7.70;99.90
43665;DHT22;29263;48.172;11.484;2022-09-29T03:43:21;8.20;99.90
43665;DHT22;29263;48.172;11.484;2022-09-29T03:45:48;7.80;99.90
43665;DHT22;29263;48.172;11.484;2022-09-29T03:48:14;7.80;99.90
43665;DHT22;29263;48.172;11.484;2022-09-29T03:50:41;7.80;99.90
43665;DHT22;29263;48.172;11.484;2022-09-29T03:53:06;7.90;99.90
43665;DHT22;29263;48.172;11.484;2022-09-29T03:55:32;7.80;99.90
43665;DHT22;29263;48.172;11.484;2022-09-29T03:57:58;7.70;99.90
43665;DHT22;29263;48.172;11.484;2022-09-29T04:00:23;8.00;99.90
43665;DHT22;29263;48.172;11.484;2022-09-29T04:02:49;7.80;99.90
43665;DHT22;29263;48.172;11.484;2022-09-29T04:05:14;8.40;99.90
43665;DHT22;29263;48.172;11.484;2022-09-29T04:07:41;7.80;99.90
43665;DHT22;29263;48.172;11.484;2022-09-29T04:10:07;8.40;99.90
43665;DHT22;29263;48.172;11.484;2022-09-29T04:12:33;7.80;99.90
43665;DHT22;29263;48.172;11.484;2022-09-29T04:14:58;7.90;99.90
43665;DHT22;29263;48.172;11.484;2022-09-29T04:17:24;8.10;99.90
43665;DHT22;29263;48.172;11.484;2022-09-29T04:19:50;7.90;99.90
43665;DHT22;29263;48.172;11.484;2022-09-29T04:22:16;7.90;99.90
43665;DHT22;29263;48.172;11.484;2022-09-29T04:24:45;7.90;99.90
43665;DHT22;29263;48.172;11.484;2022-09-29T04:27:13;8.10;99.90
43665;DHT22;29263;48.172;11.484;2022-09-29T04:29:38;7.80;99.90
43665;DHT22;29263;48.172;11.484;2022-09-29T04:32:04;8.00;99.90
43665;DHT22;29263;48.172;11.484;2022-09-29T04:34:31;7.90;99.90
43665;DHT22;29263;48.172;11.484;2022-09-29T04:36:56;7.90;99.90
43665;DHT22;29263;48.172;11.484;2022-09-29T04:39:22;8.20;99.90
43665;DHT22;29263;48.172;11.484;2022-09-29T04:41:48;7.80;99.90
43665;DHT22;29263;48.172;11.484;2022-09-29T04:44:13;7.90;99.90
43665;DHT22;29263;48.172;11.484;2022-09-29T04:46:39;8.00;99.90
43665;DHT22;29263;48.172;11.484;2022-09-29T04:49:05;7.80;99.90
43665;DHT22;29263;48.172;11.484;2022-09-29T04:51:30;7.80;99.90
43665;DHT22;29263;48.172;11.484;2022-09-29T04:53:59;7.90;99.90
43665;DHT22;29263;48.172;11.484;2022-09-29T04:56:24;7.90;99.90
43665;DHT22;29263;48.172;11.484;2022-09-29T04:58:56;8.00;99.90
43665;DHT22;29263;48.172;11.484;2022-09-29T05:01:24;8.10;99.90
43665;DHT22;29263;48.172;11.484;2022-09-29T05:03:50;7.90;99.90
43665;DHT22;29263;48.172;11.484;2022-09-29T05:06:16;7.90;99.90
43665;DHT22;29263;48.172;11.484;2022-09-29T05:08:42;7.90;99.90
43665;DHT22;29263;48.172;11.484;2022-09-29T05:11:08;7.90;99.90
43665;DHT22;29263;48.172;11.484;2022-09-29T05:13:35;7.90;99.90
43665;DHT22;29263;48.172;11.484;2022-09-29T05:16:01;7.90;99.90
43665;DHT22;29263;48.172;11.484;2022-09-29T05:18:28;7.80;99.90
43665;DHT22;29263;48.172;11.484;2022-09-29T05:20:53;7.90;99.90
43665;DHT22;29263;48.172;11.484;2022-09-29T05:23:19;7.90;99.90
43665;DHT22;29263;48.172;11.484;2022-09-29T05:25:45;7.80;99.90
43665;DHT22;29263;48.172;11.484;2022-09-29T05:28:11;7.80;99.90
43665;DHT22;29263;48.172;11.484;2022-09-29T05:30:39;8.10;99.90
43665;DHT22;29263;48.172;11.484;2022-09-29T05:33:05;7.90;99.90
43665;DHT22;29263;48.172;11.484;2022-09-29T05:35:31;7.70;99.90
43665;DHT22;29263;48.172;11.484;2022-09-29T05:37:56;8.00;99.90
43665;DHT22;29263;48.172;11.484;2022-09-29T05:40:22;7.90;99.90
43665;DHT22;29263;48.172;11.484;2022-09-29T05:42:49;8.30;99.90
43665;DHT22;29263;48.172;11.484;2022-09-29T05:45:15;8.00;99.90
43665;DHT22;29263;48.172;11.484;2022-09-29T05:47:42;7.70;99.90
43665;DHT22;29263;48.172;11.484;2022-09-29T05:50:09;8.00;99.90
43665;DHT22;29263;48.172;11.484;2022-09-29T05:52:36;7.70;99.90
43665;DHT22;29263;48.172;11.484;2022-09-29T05:55:01;7.90;99.90
43665;DHT22;29263;48.172;11.484;2022-09-29T05:57:27;7.70;99.90
43665;DHT22;29263;48.172;11.484;2022-09-29T05:59:53;7.80;99.90
43665;DHT22;29263;48.172;11.484;2022-09-29T06:02:19;7.70;99.90
43665;DHT22;29263;48.172;11.484;2022-09-29T06:04:44;7.80;99.90
43665;DHT22;29263;48.172;11.484;2022-09-29T06:07:19;7.90;99.90
43665;DHT22;29263;48.172;11.484;2022-09-29T06:09:45;7.90;99.90
43665;DHT22;29263;48.172;11.484;2022-09-29T06:12:12;8.00;99.90
43665;DHT22;29263;48.172;11.484;2022-09-29T06:14:37;8.00;99.90
43665;DHT22;29263;48.172;11.484;2022-09-29T06:17:03;7.90;99.90
43665;DHT22;29263;48.172;11.484;2022-09-29T06:19:29;8.00;99.90
43665;DHT22;29263;48.172;11.484;2022-09-29T06:21:54;8.00;99.90
43665;DHT22;29263;48.172;11.484;2022-09-29T06:24:26;8.00;99.90
43665;DHT22;29263;48.172;11.484;2022-09-29T06:26:52;8.00;99.90
43665;DHT22;29263;48.172;11.484;2022-09-29T06:29:17;8.00;99.90
43665;DHT22;29263;48.172;11.484;2022-09-29T06:31:43;8.30;99.90
43665;DHT22;29263;48.172;11.484;2022-09-29T06:34:10;8.10;99.90
43665;DHT22;29263;48.172;11.484;2022-09-29T06:36:39;8.20;99.90
43665;DHT22;29263;48.172;11.484;2022-09-29T06:39:24;8.20;99.90
43665;DHT22;29263;48.172;11.484;2022-09-29T06:41:49;8.30;99.90
43665;DHT22;29263;48.172;11.484;2022-09-29T06:44:19;8.30;99.90
43665;DHT22;29263;48.172;11.484;2022-09-29T06:46:46;8.40;99.90
43665;DHT22;29263;48.172;11.484;2022-09-29T06:49:12;8.50;99.90
43665;DHT22;29263;48.172;11.484;2022-09-29T06:51:39;8.50;99.90
43665;DHT22;29263;48.172;11.484;2022-09-29T06:54:05;8.50;99.90
43665;DHT22;29263;48.172;11.484;2022-09-29T06:56:31;8.60;99.90
43665;DHT22;29263;48.172;11.484;2022-09-29T06:58:56;8.80;99.90
43665;DHT22;29263;48.172;11.484;2022-09-29T07:01:22;8.70;99.90
43665;DHT22;29263;48.172;11.484;2022-09-29T07:03:47;8.80;99.90
43665;DHT22;29263;48.172;11.484;2022-09-29T07:06:13;8.80;99.90
43665;DHT22;29263;48.172;11.484;2022-09-29T07:08:39;9.00;99.90
43665;DHT22;29263;48.172;11.484;2022-09-29T07:11:06;8.90;99.90
43665;DHT22;29263;48.172;11.484;2022-09-29T07:13:32;9.10;99.90
43665;DHT22;29263;48.172;11.484;2022-09-29T07:16:12;8.90;99.90
43665;DHT22;29263;48.172;11.484;2022-09-29T07:18:40;8.90;99.90
43665;DHT22;29263;48.172;11.484;2022-09-29T07:21:11;9.00;99.90
43665;DHT22;29263;48.172;11.484;2022-09-29T07:23:37;9.10;99.90
43665;DHT22;29263;48.172;11.484;2022-09-29T07:26:05;9.10;99.90
43665;DHT22;29263;48.172;11.484;2022-09-29T07:28:31;9.20;99.90
43665;DHT22;29263;48.172;11.484;2022-09-29T07:31:17;9.30;99.90
43665;DHT22;29263;48.172;11.484;2022-09-29T07:33:44;9.40;99.90
43665;DHT22;29263;48.172;11.484;2022-09-29T07:36:14;9.50;99.90
43665;DHT22;29263;48.172;11.484;2022-09-29T07:38:41;9.40;99.90
43665;DHT22;29263;48.172;11.484;2022-09-29T07:41:09;9.50;99.90
43665;DHT22;29263;48.172;11.484;2022-09-29T07:43:35;9.50;99.90
43665;DHT22;29263;48.172;11.484;2022-09-29T07:46:02;9.50;99.90
43665;DHT22;29263;48.172;11.484;2022-09-29T07:48:28;9.50;99.90
43665;DHT22;29263;48.172;11.484;2022-09-29T07:51:20;9.60;99.90
43665;DHT22;29263;48.172;11.484;2022-09-29T07:53:46;9.50;99.90
43665;DHT22;29263;48.172;11.484;2022-09-29T07:56:17;9.50;99.90
43665;DHT22;29263;48.172;11.484;2022-09-29T07:58:45;9.60;99.90
43665;DHT22;29263;48.172;11.484;2022-09-29T08:01:11;9.60;99.90
43665;DHT22;29263;48.172;11.484;2022-09-29T08:03:39;9.60;99.90
43665;DHT22;29263;48.172;11.484;2022-09-29T08:06:09;9.70;99.90
43665;DHT22;29263;48.172;11.484;2022-09-29T08:08:35;9.80;99.90
43665;DHT22;29263;48.172;11.484;2022-09-29T08:11:09;9.70;99.90
43665;DHT22;29263;48.172;11.484;2022-09-29T08:13:35;9.70;99.90
43665;DHT22;29263;48.172;11.484;2022-09-29T08:16:04;9.80;99.90
43665;DHT22;29263;48.172;11.484;2022-09-29T08:18:31;9.80;99.90
43665;DHT22;29263;48.172;11.484;2022-09-29T08:20:57;9.80;99.90
43665;DHT22;29263;48.172;11.484;2022-09-29T08:23:23;9.70;99.90
43665;DHT22;29263;48.172;11.484;2022-09-29T08:25:58;9.80;99.90
43665;DHT22;29263;48.172;11.484;2022-09-29T08:28:24;9.90;99.90
43665;DHT22;29263;48.172;11.484;2022-09-29T08:30:50;9.90;99.90
43665;DHT22;29263;48.172;11.484;2022-09-29T08:33:16;10.00;99.90
43665;DHT22;29263;48.172;11.484;2022-09-29T08:35:41;10.10;99.90
43665;DHT22;29263;48.172;11.484;2022-09-29T08:38:07;10.10;99.90
43665;DHT22;29263;48.172;11.484;2022-09-29T08:40:33;10.20;99.90
43665;DHT22;29263;48.172;11.484;2022-09-29T08:45:34;10.10;99.90
43665;DHT22;29263;48.172;11.484;2022-09-29T08:48:24;10.10;99.90
43665;DHT22;29263;48.172;11.484;2022-09-29T08:50:58;10.10;99.90
43665;DHT22;29263;48.172;11.484;2022-09-29T08:53:27;10.10;99.90
43665;DHT22;29263;48.172;11.484;2022-09-29T08:55:59;10.00;99.90
43665;DHT22;29263;48.172;11.484;2022-09-29T08:58:25;9.90;99.90
43665;DHT22;29263;48.172;11.484;2022-09-29T09:01:26;10.00;99.90
43665;DHT22;29263;48.172;11.484;2022-09-29T09:12:28;10.00;99.90
43665;DHT22;29263;48.172;11.484;2022-09-29T09:20:44;10.00;99.90
43665;DHT22;29263;48.172;11.484;2022-09-29T09:23:18;10.00;99.90
43665;DHT22;29263;48.172;11.484;2022-09-29T09:25:52;10.00;99.90
43665;DHT22;29263;48.172;11.484;2022-09-29T09:31:00;9.80;99.90
43665;DHT22;29263;48.172;11.484;2022-09-29T09:33:40;9.80;99.90
43665;DHT22;29263;48.172;11.484;2022-09-29T09:36:15;9.80;99.90
43665;DHT22;29263;48.172;11.484;2022-09-29T09:38:46;9.90;99.90
43665;DHT22;29263;48.172;11.484;2022-09-29T09:41:18;9.70;99.90
43665;DHT22;29263;48.172;11.484;2022-09-29T09:43:48;9.70;99.90
43665;DHT22;29263;48.172;11.484;2022-09-29T09:46:26;9.70;99.90
43665;DHT22;29263;48.172;11.484;2022-09-29T09:51:42;9.80;99.90
43665;DHT22;29263;48.172;11.484;2022-09-29T09:54:24;9.90;99.90
43665;DHT22;29263;48.172;11.484;2022-09-29T10:02:22;9.90;99.90
43665;DHT22;29263;48.172;11.484;2022-09-29T10:04:50;9.80;99.90
43665;DHT22;29263;48.172;11.484;2022-09-29T10:07:21;9.90;99.90
43665;DHT22;29263;48.172;11.484;2022-09-29T10:09:47;9.80;99.90
43665;DHT22;29263;48.172;11.484;2022-09-29T10:12:21;9.80;99.90
43665;DHT22;29263;48.172;11.484;2022-09-29T10:14:54;9.90;99.90
43665;DHT22;29263;48.172;11.484;2022-09-29T10:17:25;9.90;99.90
43665;DHT22;29263;48.172;11.484;2022-09-29T10:22:24;10.00;99.90
43665;DHT22;29263;48.172;11.484;2022-09-29T10:25:14;10.20;99.90
43665;DHT22;29263;48.172;11.484;2022-09-29T10:27:42;10.00;99.90
43665;DHT22;29263;48.172;11.484;2022-09-29T10:30:21;10.20;99.90
43665;DHT22;29263;48.172;11.484;2022-09-29T10:32:48;10.20;99.90
43665;DHT22;29263;48.172;11.484;2022-09-29T10:35:37;10.20;99.90
43665;DHT22;29263;48.172;11.484;2022-09-29T10:38:22;10.30;99.90
43665;DHT22;29263;48.172;11.484;2022-09-29T10:41:00;10.30;99.90
43665;DHT22;29263;48.172;11.484;2022-09-29T10:45:59;10.20;99.90
43665;DHT22;29263;48.172;11.484;2022-09-29T10:48:25;10.30;99.90
43665;DHT22;29263;48.172;11.484;2022-09-29T10:51:01;10.30;99.90
43665;DHT22;29263;48.172;11.484;2022-09-29T10:55:57;10.20;99.90
43665;DHT22;29263;48.172;11.484;2022-09-29T10:58:35;10.20;99.90
43665;DHT22;29263;48.172;11.484;2022-09-29T11:01:12;10.20;99.90
43665;DHT22;29263;48.172;11.484;2022-09-29T11:03:45;10.20;99.90
43665;DHT22;29263;48.172;11.484;2022-09-29T11:06:12;10.30;99.90
43665;DHT22;29263;48.172;11.484;2022-09-29T11:09:00;10.30;99.90
43665;DHT22;29263;48.172;11.484;2022-09-29T11:11:27;10.30;99.90
43665;DHT22;29263;48.172;11.484;2022-09-29T11:13:54;10.30;99.90
43665;DHT22;29263;48.172;11.484;2022-09-29T11:19:06;10.40;99.90
43665;DHT22;29263;48.172;11.484;2022-09-29T11:30:03;10.50;99.90
43665;DHT22;29263;48.172;11.484;2022-09-29T11:38:45;10.50;99.90
43665;DHT22;29263;48.172;11.484;2022-09-29T11:50:12;10.30;99.90
43665;DHT22;29263;48.172;11.484;2022-09-29T11:58:49;10.20;99.90
43665;DHT22;29263;48.172;11.484;2022-09-29T12:01:24;10.30;99.90
43665;DHT22;29263;48.172;11.484;2022-09-29T12:04:16;10.40;99.90
43665;DHT22;29263;48.172;11.484;2022-09-29T12:10:01;10.60;99.90
43665;DHT22;29263;48.172;11.484;2022-09-29T12:17:37;10.60;99.90
43665;DHT22;29263;48.172;11.484;2022-09-29T12:20:32;10.70;99.90
43665;DHT22;29263;48.172;11.484;2022-09-29T12:23:02;10.70;99.90
43665;DHT22;29263;48.172;11.484;2022-09-29T12:25:33;10.80;99.90
43665;DHT22;29263;48.172;11.484;2022-09-29T12:28:12;10.80;99.90
43665;DHT22;29263;48.172;11.484;2022-09-29T12:31:00;10.90;99.90
43665;DHT22;29263;48.172;11.484;2022-09-29T12:33:47;10.90;99.90
43665;DHT22;29263;48.172;11.484;2022-09-29T12:36:29;10.90;99.90
43665;DHT22;29263;48.172;11.484;2022-09-29T12:42:32;11.00;99.90
43665;DHT22;29263;48.172;11.484;2022-09-29T12:50:41;11.00;99.90
43665;DHT22;29263;48.172;11.484;2022-09-29T12:53:20;11.00;99.90
43665;DHT22;29263;48.172;11.484;2022-09-29T13:01:32;10.80;99.90
43665;DHT22;29263;48.172;11.484;2022-09-29T13:12:51;10.80;99.90
43665;DHT22;29263;48.172;11.484;2022-09-29T13:21:03;10.80;99.90
43665;DHT22;29263;48.172;11.484;2022-09-29T13:28:55;10.70;99.90
43665;DHT22;29263;48.172;11.484;2022-09-29T13:31:27;10.60;99.90
43665;DHT22;29263;48.172;11.484;2022-09-29T13:33:55;10.60;99.90
43665;DHT22;29263;48.172;11.484;2022-09-29T13:36:32;10.60;99.90
43665;DHT22;29263;48.172;11.484;2022-09-29T13:39:04;10.60;99.90
43665;DHT22;29263;48.172;11.484;2022-09-29T13:54:43;10.40;99.90
43665;DHT22;29263;48.172;11.484;2022-09-29T13:59:42;10.20;99.90
43665;DHT22;29263;48.172;11.484;2022-09-29T14:02:39;10.10;99.90
43665;DHT22;29263;48.172;11.484;2022-09-29T14:18:43;10.30;99.90
43665;DHT22;29263;48.172;11.484;2022-09-29T14:27:26;10.10;99.90
43665;DHT22;29263;48.172;11.484;2022-09-29T14:37:40;10.10;99.90
43665;DHT22;29263;48.172;11.484;2022-09-29T14:40:07;10.00;99.90
43665;DHT22;29263;48.172;11.484;2022-09-29T14:52:03;9.90;99.90
43665;DHT22;29263;48.172;11.484;2022-09-29T14:57:27;9.70;99.90
43665;DHT22;29263;48.172;11.484;2022-09-29T15:02:33;9.80;99.90
43665;DHT22;29263;48.172;11.484;2022-09-29T15:05:22;9.80;99.90
43665;DHT22;29263;48.172;11.484;2022-09-29T15:07:48;9.80;99.90
43665;DHT22;29263;48.172;11.484;2022-09-29T15:10:23;9.70;99.90
43665;DHT22;29263;48.172;11.484;2022-09-29T15:12:50;9.70;99.90
43665;DHT22;29263;48.172;11.484;2022-09-29T15:15:32;9.70;99.90
43665;DHT22;29263;48.172;11.484;2022-09-29T15:20:59;9.70;99.90
43665;DHT22;29263;48.172;11.484;2022-09-29T15:25:56;9.80;99.90
43665;DHT22;29263;48.172;11.484;2022-09-29T15:28:26;9.80;99.90
43665;DHT22;29263;48.172;11.484;2022-09-29T15:30:57;9.80;99.90
43665;DHT22;29263;48.172;11.484;2022-09-29T15:33:25;9.80;99.90
43665;DHT22;29263;48.172;11.484;2022-09-29T15:36:00;9.70;99.90
43665;DHT22;29263;48.172;11.484;2022-09-29T15:38:30;9.70;99.90
43665;DHT22;29263;48.172;11.484;2022-09-29T15:41:02;9.70;99.90
43665;DHT22;29263;48.172;11.484;2022-09-29T15:43:37;9.70;99.90
43665;DHT22;29263;48.172;11.484;2022-09-29T15:51:36;9.70;99.90
43665;DHT22;29263;48.172;11.484;2022-09-29T15:54:28;9.70;99.90
43665;DHT22;29263;48.172;11.484;2022-09-29T15:56:55;9.70;99.90
43665;DHT22;29263;48.172;11.484;2022-09-29T15:59:42;9.70;99.90
43665;DHT22;29263;48.172;11.484;2022-09-29T16:02:35;9.80;99.90
43665;DHT22;29263;48.172;11.484;2022-09-29T16:05:05;9.60;99.90
43665;DHT22;29263;48.172;11.484;2022-09-29T16:07:37;9.50;99.90
43665;DHT22;29263;48.172;11.484;2022-09-29T16:10:17;9.50;99.90
43665;DHT22;29263;48.172;11.484;2022-09-29T16:13:04;9.40;99.90
43665;DHT22;29263;48.172;11.484;2022-09-29T16:15:36;9.40;99.90
43665;DHT22;29263;48.172;11.484;2022-09-29T16:18:08;9.40;99.90
43665;DHT22;29263;48.172;11.484;2022-09-29T16:21:14;9.30;99.90
43665;DHT22;29263;48.172;11.484;2022-09-29T16:26:57;9.30;99.90
43665;DHT22;29263;48.172;11.484;2022-09-29T16:30:03;9.30;99.90
43665;DHT22;29263;48.172;11.484;2022-09-29T16:32:53;9.30;99.90
43665;DHT22;29263;48.172;11.484;2022-09-29T16:38:34;9.00;99.90
43665;DHT22;29263;48.172;11.484;2022-09-29T16:46:31;9.10;99.90
43665;DHT22;29263;48.172;11.484;2022-09-29T16:48:57;9.20;99.90
43665;DHT22;29263;48.172;11.484;2022-09-29T16:51:23;9.10;99.90
43665;DHT22;29263;48.172;11.484;2022-09-29T16:53:50;9.30;99.90
43665;DHT22;29263;48.172;11.484;2022-09-29T16:56:33;9.00;99.90
43665;DHT22;29263;48.172;11.484;2022-09-29T16:59:05;9.00;99.90
43665;DHT22;29263;48.172;11.484;2022-09-29T17:01:48;9.10;99.90
43665;DHT22;29263;48.172;11.484;2022-09-29T17:04:15;9.10;99.90
43665;DHT22;29263;48.172;11.484;2022-09-29T17:06:45;9.10;99.90
43665;DHT22;29263;48.172;11.484;2022-09-29T17:09:17;9.20;99.90
43665;DHT22;29263;48.172;11.484;2022-09-29T17:11:43;9.10;99.90
43665;DHT22;29263;48.172;11.484;2022-09-29T17:14:10;9.10;99.90
43665;DHT22;29263;48.172;11.484;2022-09-29T17:16:38;9.00;99.90
43665;DHT22;29263;48.172;11.484;2022-09-29T17:19:08;9.10;99.90
43665;DHT22;29263;48.172;11.484;2022-09-29T17:21:34;9.10;99.90
43665;DHT22;29263;48.172;11.484;2022-09-29T17:24:00;9.10;99.90
43665;DHT22;29263;48.172;11.484;2022-09-29T17:29:18;9.20;99.90
43665;DHT22;29263;48.172;11.484;2022-09-29T17:31:43;9.00;99.90
43665;DHT22;29263;48.172;11.484;2022-09-29T17:34:09;9.00;99.90
43665;DHT22;29263;48.172;11.484;2022-09-29T17:36:36;9.20;99.90
43665;DHT22;29263;48.172;11.484;2022-09-29T17:39:02;9.00;99.90
43665;DHT22;29263;48.172;11.484;2022-09-29T17:41:28;9.00;99.90
43665;DHT22;29263;48.172;11.484;2022-09-29T17:43:54;9.10;99.90
43665;DHT22;29263;48.172;11.484;2022-09-29T17:46:20;9.10;99.90
43665;DHT22;29263;48.172;11.484;2022-09-29T17:48:45;9.10;99.90
43665;DHT22;29263;48.172;11.484;2022-09-29T17:51:12;9.20;99.90
43665;DHT22;29263;48.172;11.484;2022-09-29T17:53:38;9.10;99.90
43665;DHT22;29263;48.172;11.484;2022-09-29T17:56:05;9.10;99.90
43665;DHT22;29263;48.172;11.484;2022-09-29T17:58:31;9.10;99.90
43665;DHT22;29263;48.172;11.484;2022-09-29T18:00:57;9.30;99.90
43665;DHT22;29263;48.172;11.484;2022-09-29T18:03:23;9.10;99.90
43665;DHT22;29263;48.172;11.484;2022-09-29T18:05:53;9.10;99.90
43665;DHT22;29263;48.172;11.484;2022-09-29T18:08:22;9.20;99.90
43665;DHT22;29263;48.172;11.484;2022-09-29T18:10:54;9.00;99.90
43665;DHT22;29263;48.172;11.484;2022-09-29T18:13:21;9.00;99.90
43665;DHT22;29263;48.172;11.484;2022-09-29T18:15:55;9.00;99.90
43665;DHT22;29263;48.172;11.484;2022-09-29T18:18:24;9.00;99.90
43665;DHT22;29263;48.172;11.484;2022-09-29T18:20:50;9.00;99.90
43665;DHT22;29263;48.172;11.484;2022-09-29T18:23:19;9.00;99.90
43665;DHT22;29263;48.172;11.484;2022-09-29T18:25:49;9.00;99.90
43665;DHT22;29263;48.172;11.484;2022-09-29T18:28:16;9.00;99.90
43665;DHT22;29263;48.172;11.484;2022-09-29T18:30:44;9.10;99.90
43665;DHT22;29263;48.172;11.484;2022-09-29T18:33:13;9.10;99.90
43665;DHT22;29263;48.172;11.484;2022-09-29T18:35:44;9.20;99.90
43665;DHT22;29263;48.172;11.484;2022-09-29T18:38:10;9.00;99.90
43665;DHT22;29263;48.172;11.484;2022-09-29T18:40:36;9.10;99.90
43665;DHT22;29263;48.172;11.484;2022-09-29T18:43:03;9.10;99.90
43665;DHT22;29263;48.172;11.484;2022-09-29T18:45:33;9.20;99.90
43665;DHT22;29263;48.172;11.484;2022-09-29T18:48:01;9.10;99.90
43665;DHT22;29263;48.172;11.484;2022-09-29T18:50:33;9.00;99.90
43665;DHT22;29263;48.172;11.484;2022-09-29T18:53:00;9.00;99.90
43665;DHT22;29263;48.172;11.484;2022-09-29T18:55:27;9.20;99.90
43665;DHT22;29263;48.172;11.484;2022-09-29T18:57:55;9.00;99.90
43665;DHT22;29263;48.172;11.484;2022-09-29T19:00:24;9.00;99.90
43665;DHT22;29263;48.172;11.484;2022-09-29T19:02:50;9.00;99.90
43665;DHT22;29263;48.172;11.484;2022-09-29T19:05:21;9.00;99.90
43665;DHT22;29263;48.172;11.484;2022-09-29T19:07:52;9.00;99.90
43665;DHT22;29263;48.172;11.484;2022-09-29T19:10:18;8.90;99.90
43665;DHT22;29263;48.172;11.484;2022-09-29T19:12:44;9.00;99.90
43665;DHT22;29263;48.172;11.484;2022-09-29T19:15:15;9.00;99.90
43665;DHT22;29263;48.172;11.484;2022-09-29T19:17:41;9.00;99.90
43665;DHT22;29263;48.172;11.484;2022-09-29T19:20:07;9.00;99.90
43665;DHT22;29263;48.172;11.484;2022-09-29T19:22:34;9.00;99.90
43665;DHT22;29263;48.172;11.484;2022-09-29T19:25:11;9.10;99.90
43665;DHT22;29263;48.172;11.484;2022-09-29T19:27:38;9.00;99.90
43665;DHT22;29263;48.172;11.484;2022-09-29T19:30:05;9.00;99.90
43665;DHT22;29263;48.172;11.484;2022-09-29T19:32:31;9.00;99.90
43665;DHT22;29263;48.172;11.484;2022-09-29T19:34:56;9.00;99.90
43665;DHT22;29263;48.172;11.484;2022-09-29T19:37:23;9.00;99.90